Austin, Nevada
Current Conditions -  °F | °C
As of 8:56 PM on Monday 20 Oct 2014 (Local Time) from KNFL Reporting Station
Few Clouds Few Clouds  
Wind Chill: 64°   Ceiling: Unl
Heat Index: 64°   Visibility: 10mi
Dew Point: 31°   Wind: 9mph
Humidity: 29%   Direction: 210°SSW
Pressure: 29.83"   Gusts: NA
Location:  39.49°N, 117.07°W
Report Text: KNFL 210356Z 21008KT 10SM FEW070 FEW120 18/M01 A2983 RMK AO2 SLP078 T01781006
Loading
Personal Weather Stations






























Interactive Weather Map New forecast layout! Learn more

10-Day Weather Forecast

Advertisements
Track Severe Weather on mobile